Terminal Aerodrome Forecast
Issued by NWS

Home | Current Version | Previous Version | Text Only | Print | Product List | Glossary On
Versions: 1 2 3 4 5 6 7 8 9 10 11 12 13
000
FTUS42 KGSP 282108 AAA
TAFGMU
TAF AMD
KGMU 282108Z 2821/2918 23008KT P6SM OVC006
     FM290000 00000KT 3SM BR OVC003
     FM290400 35003KT 2SM -RA BR OVC003
     FM291300 04003KT 3SM -RA BR OVC003
     FM291700 04003KT P6SM OVC007=

USA.gov is the U.S. government's official web portal to all federal, state and local government web resources and services.